Time;durP1;ratioP1;P1;durP2;ratioP2;P2;SDS_P1;SDS_P2;PMS_P1;PMS_P2;Temp;Humidity;BMP_temperature;BMP_pressure;BME280_temperature;BME280_humidity;BME280_pressure;Samples;Min_cycle;Max_cycle;Signal;HPM_P1;HPM_P2
2022/11/24 00:01:10;;;;;;;17.33;3.20;;;;;;;9.11;100.00;100209.59;4990087;28;20426;-70
2022/11/24 00:03:35;;;;;;;21.10;3.40;;;;;;;9.19;100.00;100196.16;4990198;28;20484;-66
2022/11/24 00:06:03;;;;;;;26.90;4.68;;;;;;;9.23;100.00;100200.38;4990971;28;20054;-66
2022/11/24 00:08:29;;;;;;;25.45;3.53;;;;;;;9.63;100.00;100207.63;4990145;28;20030;-63
2022/11/24 00:10:54;;;;;;;22.98;3.67;;;;;;;9.70;100.00;100204.66;4990388;28;20033;-58
2022/11/24 00:13:19;;;;;;;19.77;3.40;;;;;;;9.44;100.00;100208.34;4990342;28;20030;-65
2022/11/24 00:15:45;;;;;;;19.10;3.05;;;;;;;9.29;100.00;100199.28;4991138;28;20057;-62
2022/11/24 00:18:10;;;;;;;19.55;3.80;;;;;;;9.17;100.00;100200.59;4989821;28;20030;-67
2022/11/24 00:20:35;;;;;;;19.15;3.72;;;;;;;9.20;100.00;100200.47;4990888;28;20133;-66
2022/11/24 00:23:01;;;;;;;25.55;4.47;;;;;;;9.17;100.00;100197.97;4990499;28;20022;-65
2022/11/24 00:25:26;;;;;;;20.85;3.80;;;;;;;9.13;100.00;100206.91;4990731;28;20085;-65
2022/11/24 00:27:51;;;;;;;24.27;3.67;;;;;;;9.03;100.00;100204.59;4990554;28;20425;-59
2022/11/24 00:30:17;;;;;;;29.73;4.32;;;;;;;9.09;100.00;100208.78;4990901;28;20033;-64
2022/11/24 00:32:42;;;;;;;24.60;3.83;;;;;;;9.16;100.00;100209.41;4990902;28;20664;-66
2022/11/24 00:35:08;;;;;;;26.42;4.55;;;;;;;9.10;100.00;100213.97;5008449;28;20107;-65
2022/11/24 00:37:34;;;;;;;17.83;3.92;;;;;;;9.10;100.00;100211.34;5006912;28;20022;-61
2022/11/24 00:39:59;;;;;;;28.10;3.90;;;;;;;9.21;100.00;100210.06;5009346;28;20109;-66
2022/11/24 00:42:24;;;;;;;28.55;6.35;;;;;;;9.28;100.00;100221.22;5010181;28;20045;-63
2022/11/24 00:44:50;;;;;;;19.13;3.80;;;;;;;9.23;100.00;100224.03;5009457;28;20030;-65
2022/11/24 00:47:18;;;;;;;21.25;3.72;;;;;;;9.22;100.00;100220.53;5010353;28;20026;-68
2022/11/24 00:49:43;;;;;;;27.33;4.13;;;;;;;9.21;100.00;100225.84;5010478;28;20029;-65
2022/11/24 00:52:09;;;;;;;19.15;3.15;;;;;;;9.19;100.00;100230.31;5009136;28;20532;-65
2022/11/24 00:54:34;;;;;;;22.05;3.55;;;;;;;9.17;100.00;100232.16;5009981;28;20037;-65
2022/11/24 00:56:59;;;;;;;23.55;3.97;;;;;;;9.17;100.00;100238.28;5010021;28;20144;-57
2022/11/24 00:59:25;;;;;;;26.80;3.38;;;;;;;9.12;100.00;100234.09;5009969;28;20068;-65
2022/11/24 01:01:50;;;;;;;25.42;3.72;;;;;;;9.15;100.00;100239.25;5000114;28;20085;-63
2022/11/24 01:04:16;;;;;;;22.52;3.75;;;;;;;9.12;100.00;100229.69;4990454;28;20030;-65
2022/11/24 01:06:42;;;;;;;20.50;3.85;;;;;;;9.08;100.00;100236.84;4988766;28;20553;-64
2022/11/24 01:09:10;;;;;;;19.92;3.47;;;;;;;9.17;100.00;100243.53;4989045;28;20031;-63
2022/11/24 01:14:21;;;;;;;19.42;3.90;;;;;;;9.17;100.00;100242.66;4990360;28;20073;-66
2022/11/24 01:16:47;;;;;;;23.50;4.20;;;;;;;9.17;100.00;100247.91;4990984;28;20373;-64
2022/11/24 01:19:12;;;;;;;18.23;3.10;;;;;;;9.08;100.00;100243.84;4990512;28;20063;-62
2022/11/24 01:21:38;;;;;;;20.58;3.92;;;;;;;9.14;100.00;100248.91;4989243;28;20030;-63
2022/11/24 01:24:04;;;;;;;21.15;3.10;;;;;;;9.01;100.00;100248.50;4990201;28;20022;-65
2022/11/24 01:26:29;;;;;;;15.20;3.60;;;;;;;8.98;100.00;100254.69;4989835;28;20050;-66
2022/11/24 01:28:56;;;;;;;17.52;3.47;;;;;;;8.96;100.00;100248.66;4989971;28;20482;-59
2022/11/24 01:31:21;;;;;;;12.98;3.15;;;;;;;8.83;100.00;100250.91;4988710;28;20461;-66
2022/11/24 01:33:47;;;;;;;19.15;2.53;;;;;;;8.93;100.00;100253.16;4990602;28;20034;-65
2022/11/24 01:36:12;;;;;;;15.60;3.00;;;;;;;8.97;100.00;100257.38;4989398;28;20103;-62
2022/11/24 01:38:37;;;;;;;17.58;3.13;;;;;;;8.96;100.00;100255.69;4989943;28;20448;-64
2022/11/24 01:41:11;;;;;;;18.58;3.35;;;;;;;9.00;100.00;100259.91;4990004;28;20452;-65
2022/11/24 01:43:38;;;;;;;15.30;3.70;;;;;;;8.93;100.00;100258.41;4988439;28;20034;-66
2022/11/24 01:46:15;;;;;;;12.35;3.15;;;;;;;8.99;100.00;100268.72;4989360;28;20023;-66
2022/11/24 01:48:43;;;;;;;17.10;3.15;;;;;;;8.96;100.00;100269.69;4989850;28;20035;-62
2022/11/24 01:51:12;;;;;;;15.68;3.10;;;;;;;8.97;100.00;100270.53;4988293;28;20026;-66
2022/11/24 01:53:38;;;;;;;;;;;;;;;9.13;100.00;100280.50;4989363;28;20030;-60
2022/11/24 01:56:04;;;;;;;21.73;3.17;;;;;;;9.05;100.00;100281.63;4988192;28;19914;-65
2022/11/24 01:58:30;;;;;;;16.67;3.78;;;;;;;9.01;100.00;100276.53;4987510;28;20646;-69
2022/11/24 02:00:55;;;;;;;15.90;2.92;;;;;;;9.04;100.00;100282.56;4987184;28;20046;-65
2022/11/24 02:03:26;;;;;;;18.15;3.35;;;;;;;9.06;100.00;100285.97;4987757;28;20416;-67
2022/11/24 02:06:02;;;;;;;12.48;3.17;;;;;;;9.05;100.00;100286.88;4986882;28;20062;-65
2022/11/24 02:08:47;;;;;;;21.23;3.42;;;;;;;9.10;100.00;100284.94;4988862;28;20053;-60
2022/11/24 02:11:12;;;;;;;23.85;3.50;;;;;;;9.13;100.00;100291.88;4987165;28;20108;-67
2022/11/24 02:13:39;;;;;;;15.10;2.88;;;;;;;9.15;100.00;100286.56;4988262;28;20525;-62
2022/11/24 02:16:06;;;;;;;20.02;3.65;;;;;;;9.11;100.00;100298.94;4986924;28;20516;-66
2022/11/24 02:18:32;;;;;;;14.23;3.15;;;;;;;9.08;100.00;100293.78;4987780;28;20106;-68
2022/11/24 02:20:58;;;;;;;17.88;3.13;;;;;;;9.09;100.00;100301.63;4988284;28;20034;-57
2022/11/24 02:23:33;;;;;;;18.45;2.90;;;;;;;9.10;100.00;100299.88;4988768;28;20022;-68
2022/11/24 02:26:38;;;;;;;17.17;3.05;;;;;;;9.09;100.00;100309.50;4987924;28;20040;-62
2022/11/24 02:29:03;;;;;;;19.83;3.03;;;;;;;9.09;100.00;100325.28;4988875;28;20365;-67
2022/11/24 02:31:29;;;;;;;15.68;2.92;;;;;;;9.08;100.00;100326.19;4994365;28;20037;-65
2022/11/24 02:33:54;;;;;;;16.33;2.78;;;;;;;9.10;100.00;100321.72;5006340;28;20088;-67
2022/11/24 02:36:19;;;;;;;15.82;3.22;;;;;;;9.07;100.00;100328.88;4993345;28;20647;-65
2022/11/24 02:38:45;;;;;;;17.13;3.10;;;;;;;9.08;100.00;100328.84;4999828;28;20392;-61
2022/11/24 02:41:14;;;;;;;9.95;2.42;;;;;;;9.16;100.00;100314.56;4998972;28;20489;-65
2022/11/24 02:43:47;;;;;;;12.10;2.42;;;;;;;9.14;100.00;100306.72;5006862;28;20030;-68
2022/11/24 02:46:12;;;;;;;8.73;1.92;;;;;;;9.09;100.00;100317.41;5008328;28;20026;-66
2022/11/24 02:48:38;;;;;;;10.82;2.10;;;;;;;9.10;100.00;100311.22;5008522;28;20048;-65
2022/11/24 02:51:04;;;;;;;12.70;2.30;;;;;;;9.06;100.00;100308.78;4996053;28;20023;-65
2022/11/24 02:53:29;;;;;;;12.88;2.20;;;;;;;9.10;100.00;100305.97;5007626;28;20026;-63
2022/11/24 02:55:55;;;;;;;10.00;1.80;;;;;;;9.10;100.00;100297.25;5007951;28;20131;-63
2022/11/24 02:58:20;;;;;;;10.38;2.00;;;;;;;9.05;100.00;100301.78;5008708;28;20033;-67
2022/11/24 03:00:46;;;;;;;8.90;1.88;;;;;;;9.08;100.00;100299.91;5009006;28;20053;-65
2022/11/24 03:03:11;;;;;;;6.47;1.50;;;;;;;9.07;100.00;100300.84;5008845;28;20026;-65
2022/11/24 03:05:36;;;;;;;5.30;1.23;;;;;;;9.18;100.00;100312.75;5008253;28;20049;-63
2022/11/24 03:08:02;;;;;;;4.05;0.90;;;;;;;9.21;100.00;100323.13;5009826;28;20037;-63
2022/11/24 03:10:28;;;;;;;5.93;1.33;;;;;;;9.21;100.00;100317.84;5012275;28;20041;-65
2022/11/24 03:12:54;;;;;;;3.53;0.85;;;;;;;9.25;100.00;100322.09;5011763;28;20407;-63
2022/11/24 03:15:20;;;;;;;10.68;1.90;;;;;;;9.31;100.00;100327.16;5012077;28;20109;-66
2022/11/24 03:17:45;;;;;;;7.72;0.88;;;;;;;9.23;100.00;100332.69;5008308;28;20101;-64
2022/11/24 03:20:11;;;;;;;7.88;1.35;;;;;;;9.19;100.00;100352.13;4991684;28;20038;-63
2022/11/24 03:22:36;;;;;;;4.82;1.00;;;;;;;9.26;100.00;100344.84;4991238;28;20106;-63
2022/11/24 03:25:02;;;;;;;3.90;0.70;;;;;;;9.28;100.00;100350.91;4992366;28;20042;-59
2022/11/24 03:27:29;;;;;;;4.90;0.98;;;;;;;9.27;100.00;100356.22;4992508;28;20469;-64
2022/11/24 03:29:54;;;;;;;5.85;1.10;;;;;;;9.23;100.00;100350.22;4992057;28;20461;-64
2022/11/24 03:32:20;;;;;;;11.55;1.83;;;;;;;9.19;100.00;100352.13;4991977;28;20029;-65
2022/11/24 03:34:45;;;;;;;8.70;1.77;;;;;;;9.18;100.00;100362.69;4992069;28;20502;-66
2022/11/24 03:37:10;;;;;;;11.85;2.50;;;;;;;9.20;100.00;100350.31;4990829;28;20093;-67
2022/11/24 03:39:36;;;;;;;13.68;3.10;;;;;;;9.05;100.00;100360.47;5010025;28;20109;-64
2022/11/24 03:42:01;;;;;;;11.68;2.72;;;;;;;9.15;100.00;100357.53;5011094;28;20029;-64
2022/11/24 03:44:26;;;;;;;10.38;2.45;;;;;;;9.22;100.00;100356.41;5011180;28;20021;-67
2022/11/24 03:46:52;;;;;;;12.55;2.38;;;;;;;9.27;100.00;100374.63;5011027;28;20057;-65
2022/11/24 03:49:17;;;;;;;15.15;2.80;;;;;;;9.22;100.00;100372.16;5011114;28;20076;-62
2022/11/24 03:51:43;;;;;;;16.80;3.08;;;;;;;9.28;100.00;100377.22;5011116;28;20030;-66
2022/11/24 03:54:08;;;;;;;17.13;2.55;;;;;;;9.31;100.00;100381.50;5011160;28;20072;-62
2022/11/24 03:56:34;;;;;;;18.83;3.55;;;;;;;9.11;100.00;100380.44;5011324;28;20057;-66
2022/11/24 03:58:59;;;;;;;17.65;2.85;;;;;;;9.21;100.00;100388.84;4996879;28;20125;-68
2022/11/24 04:01:24;;;;;;;22.60;3.42;;;;;;;9.31;100.00;100394.63;4991903;28;20118;-63
2022/11/24 04:03:50;;;;;;;16.58;2.88;;;;;;;9.29;100.00;100402.56;4990891;28;20029;-66
2022/11/24 04:06:15;;;;;;;22.45;3.63;;;;;;;9.29;100.00;100399.94;4990900;28;20093;-65
2022/11/24 04:08:41;;;;;;;13.77;2.65;;;;;;;9.36;100.00;100403.19;4991188;28;20029;-65
2022/11/24 04:11:06;;;;;;;16.73;3.03;;;;;;;9.38;100.00;100411.03;4990822;28;20105;-66
2022/11/24 04:13:31;;;;;;;13.85;2.55;;;;;;;9.48;100.00;100410.66;4990683;28;20645;-66
2022/11/24 04:15:57;;;;;;;8.82;3.20;;;;;;;9.43;100.00;100422.25;4990533;28;20029;-63
2022/11/24 04:18:22;;;;;;;17.75;3.25;;;;;;;9.40;100.00;100417.13;4990814;28;20073;-66
2022/11/24 04:20:51;;;;;;;15.90;3.45;;;;;;;9.42;100.00;100418.75;4989257;28;20516;-64
2022/11/24 04:23:17;;;;;;;13.05;2.75;;;;;;;9.33;100.00;100424.38;4991263;28;20033;-66
2022/11/24 04:25:42;;;;;;;11.65;2.58;;;;;;;9.26;100.00;100434.22;4990482;28;20113;-66
2022/11/24 04:28:08;;;;;;;13.32;2.15;;;;;;;9.03;100.00;100438.50;4989184;28;20086;-66
2022/11/24 04:30:34;;;;;;;7.55;2.10;;;;;;;8.81;100.00;100444.50;4989637;28;20030;-59
2022/11/24 04:33:00;;;;;;;6.13;1.27;;;;;;;8.88;100.00;100460.06;4990120;28;20065;-65
2022/11/24 04:35:25;;;;;;;7.45;1.70;;;;;;;8.91;100.00;100462.59;4990251;28;20058;-62
2022/11/24 04:37:51;;;;;;;4.80;1.17;;;;;;;8.69;100.00;100474.66;4988362;28;20569;-68
2022/11/24 04:40:16;;;;;;;2.78;1.00;;;;;;;8.68;100.00;100469.44;4990885;28;20035;-65
2022/11/24 04:42:41;;;;;;;2.30;1.05;;;;;;;8.56;100.00;100479.44;4990209;28;20101;-66
2022/11/24 04:45:07;;;;;;;4.57;1.15;;;;;;;8.52;100.00;100477.75;4990486;28;20034;-66
2022/11/24 04:47:33;;;;;;;4.38;1.30;;;;;;;8.43;100.00;100483.31;4989272;28;20022;-64
2022/11/24 04:49:58;;;;;;;7.43;1.17;;;;;;;8.32;100.00;100473.13;4988943;28;20077;-66
2022/11/24 04:52:24;;;;;;;6.30;1.20;;;;;;;8.30;100.00;100480.19;4992452;28;20026;-67
2022/11/24 04:54:49;;;;;;;9.20;2.80;;;;;;;8.29;100.00;100478.47;4988339;28;20066;-65
2022/11/24 04:57:19;;;;;;;4.50;1.40;;;;;;;8.31;100.00;100482.75;4989831;28;20030;-66
2022/11/24 04:59:45;;;;;;;7.25;1.13;;;;;;;8.23;100.00;100495.28;4990388;28;20030;-64
2022/11/24 05:02:11;;;;;;;8.13;1.17;;;;;;;8.20;100.00;100495.34;4989925;28;20446;-65
2022/11/24 05:04:36;;;;;;;2.20;1.13;;;;;;;8.16;100.00;100496.34;4990191;28;20030;-63
2022/11/24 05:07:02;;;;;;;5.75;1.35;;;;;;;8.19;100.00;100509.41;4989324;28;20074;-65
2022/11/24 05:09:27;;;;;;;2.92;0.90;;;;;;;8.18;100.00;100505.91;4990385;28;20374;-66
2022/11/24 05:11:53;;;;;;;4.40;1.10;;;;;;;8.21;100.00;100502.31;4989672;28;20027;-64
2022/11/24 05:14:18;;;;;;;5.38;0.93;;;;;;;8.17;100.00;100513.81;4989685;28;20037;-65
2022/11/24 05:16:43;;;;;;;4.53;0.88;;;;;;;8.14;100.00;100513.91;4988666;28;20085;-66
2022/11/24 05:19:09;;;;;;;6.50;1.23;;;;;;;8.15;100.00;100523.50;4988833;28;20097;-66
2022/11/24 05:21:34;;;;;;;0.57;0.57;;;;;;;8.09;100.00;100532.41;4988760;28;20034;-62
2022/11/24 05:23:59;;;;;;;3.15;0.95;;;;;;;8.16;100.00;100533.09;4988122;28;20030;-65
2022/11/24 05:26:25;;;;;;;3.38;0.68;;;;;;;8.18;100.00;100542.66;4989409;28;20027;-64
2022/11/24 05:28:51;;;;;;;3.08;0.90;;;;;;;8.16;100.00;100546.22;4989476;28;20033;-66
2022/11/24 05:31:16;;;;;;;1.63;0.85;;;;;;;8.16;100.00;100548.84;4983709;28;21278;-61
2022/11/24 05:33:42;;;;;;;2.53;0.65;;;;;;;8.15;100.00;100557.59;4984170;28;20026;-63
2022/11/24 05:36:51;;;;;;;1.65;0.80;;;;;;;8.13;100.00;100559.44;4989402;28;20042;-66
2022/11/24 05:38:53;;;;;;;3.65;0.77;;;;;;;8.20;100.00;100545.22;4990382;28;20030;-65
2022/11/24 05:41:18;;;;;;;3.67;0.90;;;;;;;8.20;100.00;100550.47;4991365;28;20029;-60
2022/11/24 05:43:44;;;;;;;2.78;0.75;;;;;;;8.23;100.00;100566.13;5005165;28;20064;-64
2022/11/24 05:46:09;;;;;;;5.97;1.08;;;;;;;8.30;100.00;100561.56;4991681;28;20026;-66
2022/11/24 05:48:34;;;;;;;2.58;1.00;;;;;;;8.31;100.00;100568.56;4989784;28;20113;-63
2022/11/24 05:51:00;;;;;;;3.08;1.08;;;;;;;8.29;100.00;100572.97;4993094;28;20029;-64
2022/11/24 05:53:25;;;;;;;4.97;1.80;;;;;;;8.30;100.00;100572.94;4996159;28;20046;-65
2022/11/24 05:55:51;;;;;;;4.85;1.33;;;;;;;8.24;100.00;100583.59;4988845;28;20469;-63
2022/11/24 05:58:16;;;;;;;5.18;1.67;;;;;;;8.31;100.00;100584.31;4995675;28;20397;-66
2022/11/24 06:00:41;;;;;;;9.50;1.48;;;;;;;8.36;100.00;100597.31;4993495;28;20768;-62
2022/11/24 06:03:07;;;;;;;6.72;2.90;;;;;;;8.44;100.00;100600.56;4988201;28;20030;-58
2022/11/24 06:05:33;;;;;;;3.92;1.55;;;;;;;8.46;100.00;100601.38;4986605;28;20054;-66
2022/11/24 06:07:59;;;;;;;7.03;1.92;;;;;;;8.49;100.00;100610.94;4987638;28;20057;-58
2022/11/24 06:10:24;;;;;;;5.80;2.15;;;;;;;8.46;100.00;100612.72;4987896;28;20068;-66
2022/11/24 06:12:50;;;;;;;9.23;3.97;;;;;;;8.46;100.00;100615.34;4972942;28;20026;-68
2022/11/24 06:15:16;;;;;;;6.28;2.72;;;;;;;8.46;100.00;100620.59;4969386;28;20404;-63
2022/11/24 06:17:41;;;;;;;4.72;2.65;;;;;;;8.47;100.00;100626.72;4968958;28;20026;-67
2022/11/24 06:20:08;;;;;;;4.68;2.75;;;;;;;8.50;100.00;100629.28;4968210;28;20715;-67
2022/11/24 06:22:33;;;;;;;9.85;3.15;;;;;;;8.51;100.00;100624.84;4971935;28;20045;-60
2022/11/24 06:24:58;;;;;;;8.55;3.85;;;;;;;8.55;100.00;100631.81;4989205;28;20105;-65
2022/11/24 06:27:24;;;;;;;5.18;3.35;;;;;;;8.52;100.00;100635.31;4989337;28;20030;-66
2022/11/24 06:29:49;;;;;;;8.90;3.58;;;;;;;8.50;100.00;100644.16;4987444;28;20162;-67
2022/11/24 06:32:15;;;;;;;7.25;3.90;;;;;;;8.46;100.00;100653.91;4985753;28;20100;-64
2022/11/24 06:34:40;;;;;;;8.18;3.72;;;;;;;8.47;100.00;100664.38;4987862;28;20105;-63
2022/11/24 06:37:06;;;;;;;11.55;3.88;;;;;;;8.55;100.00;100666.78;4987166;28;20472;-60
2022/11/24 06:39:31;;;;;;;7.20;3.80;;;;;;;8.57;100.00;100664.13;4986247;28;20121;-66
2022/11/24 06:41:56;;;;;;;4.88;3.80;;;;;;;8.52;100.00;100666.84;4987879;28;20026;-64
2022/11/24 06:44:22;;;;;;;9.52;4.70;;;;;;;8.59;100.00;100678.94;4987456;28;20042;-66
2022/11/24 06:46:47;;;;;;;10.40;3.90;;;;;;;8.61;100.00;100691.16;4988337;28;20026;-61
2022/11/24 06:49:13;;;;;;;8.32;3.65;;;;;;;8.62;100.00;100692.88;4988421;28;20034;-62
2022/11/24 06:51:38;;;;;;;8.75;3.70;;;;;;;8.56;100.00;100689.53;4987502;28;20030;-66
2022/11/24 06:54:08;;;;;;;7.60;3.47;;;;;;;8.61;100.00;100697.25;4987092;28;20034;-65
2022/11/24 06:56:33;;;;;;;9.30;3.83;;;;;;;8.62;100.00;100701.63;4987724;28;20045;-67
2022/11/24 06:58:59;;;;;;;8.32;3.90;;;;;;;8.64;100.00;100696.34;4991234;28;20484;-66
2022/11/24 07:01:26;;;;;;;7.30;3.22;;;;;;;8.64;100.00;100693.72;4998303;28;20113;-65
2022/11/24 07:03:53;;;;;;;5.50;3.53;;;;;;;8.67;100.00;100712.84;4985567;28;20531;-60
2022/11/24 07:06:19;;;;;;;8.75;3.65;;;;;;;8.67;100.00;100717.25;4980995;28;20050;-65
2022/11/24 07:08:44;;;;;;;8.88;4.05;;;;;;;8.64;100.00;100722.59;4986705;28;20030;-66
2022/11/24 07:11:14;;;;;;;11.75;4.00;;;;;;;8.65;100.00;100724.31;4986689;28;20114;-66
2022/11/24 07:13:40;;;;;;;6.32;3.20;;;;;;;8.63;100.00;100728.75;4986953;28;20049;-63
2022/11/24 07:16:15;;;;;;;9.73;4.68;;;;;;;8.63;100.00;100728.75;4987848;28;20031;-66
2022/11/24 07:18:42;;;;;;;11.88;4.43;;;;;;;8.68;100.00;100734.75;4986858;28;20054;-64
2022/11/24 07:21:08;;;;;;;9.98;4.18;;;;;;;8.65;100.00;100740.94;4986098;28;20039;-67
2022/11/24 07:23:33;;;;;;;10.60;4.32;;;;;;;8.63;100.00;100736.63;4988163;28;20033;-63
2022/11/24 07:26:01;;;;;;;10.77;4.43;;;;;;;8.63;100.00;100747.13;4986389;28;20228;-64
2022/11/24 07:28:26;;;;;;;11.60;4.80;;;;;;;8.66;100.00;100753.16;4985323;28;20070;-66
2022/11/24 07:30:52;;;;;;;10.48;5.18;;;;;;;8.56;100.00;100755.19;4987322;28;20054;-63
2022/11/24 07:33:20;;;;;;;13.38;4.22;;;;;;;8.55;100.00;100758.69;4987317;28;20043;-57
2022/11/24 07:35:45;;;;;;;11.55;4.38;;;;;;;8.49;100.00;100758.00;4986935;28;20034;-62
2022/11/24 07:38:11;;;;;;;12.65;5.10;;;;;;;8.45;100.00;100768.56;4987878;28;20071;-66
2022/11/24 07:40:36;;;;;;;10.18;4.68;;;;;;;8.41;100.00;100771.31;4986447;28;20100;-63
2022/11/24 07:43:01;;;;;;;15.25;4.90;;;;;;;8.44;100.00;100774.72;4986049;28;20023;-60
2022/11/24 07:45:27;;;;;;;12.05;4.85;;;;;;;8.56;100.00;100781.47;4989239;28;20023;-66
2022/11/24 07:47:52;;;;;;;14.23;4.93;;;;;;;8.56;100.00;100781.47;4994239;28;20030;-65
2022/11/24 07:50:18;;;;;;;9.15;4.18;;;;;;;8.60;100.00;100779.59;4985829;28;20153;-63
2022/11/24 07:52:43;;;;;;;12.88;4.50;;;;;;;8.48;100.00;100783.38;4980472;28;20396;-62
2022/11/24 07:55:08;;;;;;;13.15;5.25;;;;;;;8.42;100.00;100786.16;4985351;28;20026;-63
2022/11/24 07:57:34;;;;;;;17.50;4.70;;;;;;;8.33;100.00;100790.75;4990401;28;20032;-62
2022/11/24 07:59:59;;;;;;;9.82;5.13;;;;;;;8.27;100.00;100792.66;4991104;28;20097;-65
2022/11/24 08:02:24;;;;;;;17.23;4.70;;;;;;;8.25;100.00;100802.34;4988810;28;20018;-64
2022/11/24 08:04:50;;;;;;;13.90;4.80;;;;;;;8.17;100.00;100808.66;4986247;28;20507;-63
2022/11/24 08:07:15;;;;;;;15.45;5.13;;;;;;;8.21;100.00;100806.81;4986398;28;20569;-63
2022/11/24 08:09:40;;;;;;;10.13;4.75;;;;;;;8.21;100.00;100805.03;4987493;28;20124;-65
2022/11/24 08:12:06;;;;;;;12.90;4.60;;;;;;;8.16;100.00;100808.69;4990107;28;20496;-65
2022/11/24 08:14:31;;;;;;;11.85;4.20;;;;;;;8.19;100.00;100808.63;4990899;28;20026;-63
2022/11/24 08:16:57;;;;;;;14.82;4.38;;;;;;;8.18;100.00;100813.00;4988985;28;20038;-64
2022/11/24 08:19:22;;;;;;;15.80;4.10;;;;;;;8.18;100.00;100818.25;4989424;28;20422;-62
2022/11/24 08:21:47;;;;;;;15.15;4.63;;;;;;;8.19;100.00;100827.84;4984917;28;20030;-63
2022/11/24 08:24:14;;;;;;;18.73;4.35;;;;;;;8.25;100.00;100833.84;4987033;28;20033;-66
2022/11/24 08:26:40;;;;;;;20.77;4.40;;;;;;;8.31;100.00;100844.22;4986442;28;20034;-66
2022/11/24 08:29:05;;;;;;;18.67;5.25;;;;;;;8.26;100.00;100833.81;4988409;28;20049;-65
2022/11/24 08:31:34;;;;;;;12.90;3.50;;;;;;;8.25;100.00;100836.47;4988303;28;20019;-64
2022/11/24 08:34:01;;;;;;;10.43;2.83;;;;;;;8.31;100.00;100847.69;4986655;28;20088;-65
2022/11/24 08:36:26;;;;;;;13.38;2.92;;;;;;;8.38;100.00;100843.16;4988685;28;20023;-63
2022/11/24 08:38:56;;;;;;;15.98;2.80;;;;;;;8.40;100.00;100848.38;4995556;28;20030;-66
2022/11/24 08:41:22;;;;;;;16.73;3.42;;;;;;;8.46;100.00;100845.59;4996451;28;20457;-66
2022/11/24 08:43:47;;;;;;;16.77;3.30;;;;;;;8.46;100.00;100842.97;4987265;28;20072;-61
2022/11/24 08:46:18;;;;;;;11.38;2.97;;;;;;;8.49;100.00;100855.16;4971091;28;20114;-65
2022/11/24 08:48:48;;;;;;;14.98;3.75;;;;;;;8.64;100.00;100860.03;4970488;28;20081;-65
2022/11/24 08:51:15;;;;;;;11.75;2.50;;;;;;;8.82;100.00;100860.50;4971185;28;20031;-66
2022/11/24 08:53:42;;;;;;;21.90;4.10;;;;;;;8.89;100.00;100864.66;4988151;28;20049;-67
2022/11/24 08:56:08;;;;;;;16.38;2.83;;;;;;;8.95;100.00;100875.03;4991055;28;20405;-68
2022/11/24 08:58:34;;;;;;;14.07;2.58;;;;;;;8.98;100.00;100874.06;4989547;28;20117;-67
2022/11/24 09:01:07;;;;;;;13.80;2.75;;;;;;;8.94;100.00;100868.03;5010274;28;20064;-65
2022/11/24 09:03:33;;;;;;;16.80;2.42;;;;;;;9.05;100.00;100878.25;5010011;28;20033;-65
2022/11/24 09:05:58;;;;;;;17.38;3.38;;;;;;;9.06;100.00;100881.75;4971645;28;20043;-69
2022/11/24 09:08:24;;;;;;;18.65;3.22;;;;;;;9.15;100.00;100878.84;4970797;28;20027;-63
2022/11/24 09:10:50;;;;;;;20.75;3.53;;;;;;;9.26;100.00;100893.47;4969507;28;20443;-66
2022/11/24 09:13:15;;;;;;;14.93;2.75;;;;;;;9.41;100.00;100897.44;4969948;28;20422;-67
2022/11/24 09:15:41;;;;;;;14.50;2.92;;;;;;;9.51;100.00;100896.28;4969699;28;20034;-66
2022/11/24 09:18:06;;;;;;;29.17;5.00;;;;;;;9.59;100.00;100907.47;4969482;28;20027;-68
2022/11/24 09:20:32;;;;;;;16.33;3.00;;;;;;;9.59;100.00;100902.19;4969397;28;20038;-67
2022/11/24 09:22:57;;;;;;;20.38;2.75;;;;;;;9.68;100.00;100905.47;4985096;28;20050;-64
2022/11/24 09:25:22;;;;;;;7.95;2.28;;;;;;;9.64;100.00;100909.09;4986183;28;20034;-66
2022/11/24 09:27:49;;;;;;;19.10;2.20;;;;;;;9.68;100.00;100916.84;4987194;28;20203;-66
2022/11/24 09:30:15;;;;;;;11.15;2.50;;;;;;;9.77;100.00;100918.34;4989434;28;20039;-68
2022/11/24 09:32:40;;;;;;;17.70;3.03;;;;;;;9.76;100.00;100929.78;4989782;28;20096;-69
2022/11/24 09:35:06;;;;;;;16.63;2.55;;;;;;;9.78;100.00;100935.84;4988417;28;20135;-64
2022/11/24 09:37:32;;;;;;;19.05;3.00;;;;;;;9.80;100.00;100944.59;4989965;28;20037;-66
2022/11/24 09:39:57;;;;;;;12.80;2.95;;;;;;;9.75;100.00;100943.84;4989059;28;20066;-66
2022/11/24 09:42:29;;;;;;;12.20;2.65;;;;;;;9.75;100.00;100943.00;4987025;28;20030;-60
2022/11/24 09:45:07;;;;;;;16.67;2.83;;;;;;;9.89;100.00;100947.84;4985733;28;20105;-64
2022/11/24 09:47:44;;;;;;;16.38;3.13;;;;;;;9.94;100.00;100951.22;4971193;28;20130;-68
2022/11/24 09:50:15;;;;;;;21.20;4.00;;;;;;;10.11;100.00;100956.84;4982085;28;20508;-65
2022/11/24 09:53:00;;;;;;;14.70;3.53;;;;;;;10.10;100.00;100963.03;4987354;28;20026;-66
2022/11/24 09:55:28;;;;;;;15.77;3.03;;;;;;;10.20;100.00;100968.84;4985134;28;20048;-61
2022/11/24 09:58:20;;;;;;;9.70;2.15;;;;;;;10.18;100.00;100977.72;4984492;28;20113;-65
2022/11/24 10:00:47;;;;;;;14.90;2.47;;;;;;;10.26;100.00;100974.88;4960911;28;20389;-68
2022/11/24 10:03:22;;;;;;;11.68;2.33;;;;;;;10.27;100.00;100977.44;4986536;28;20452;-64
2022/11/24 10:05:49;;;;;;;12.10;2.53;;;;;;;10.29;100.00;100983.50;4983802;28;20481;-61
2022/11/24 10:08:47;;;;;;;16.95;3.08;;;;;;;10.38;100.00;100978.91;4988548;28;20026;-67
2022/11/24 10:11:14;;;;;;;20.13;2.90;;;;;;;10.36;100.00;100977.16;4983676;28;20397;-67
2022/11/24 10:14:03;;;;;;;15.65;2.65;;;;;;;10.30;100.00;100977.31;4986193;28;20023;-60
2022/11/24 10:16:38;;;;;;;12.00;3.15;;;;;;;10.35;100.00;100991.22;4986629;28;20033;-66
2022/11/24 10:19:53;;;;;;;18.52;2.67;;;;;;;10.18;100.00;100993.53;4988296;28;20041;-66
2022/11/24 10:22:22;;;;;;;18.52;2.67;;;;;;;10.21;100.00;100994.28;4946575;29;20154;-69
2022/11/24 10:25:16;;;;;;;15.13;2.70;;;;;;;10.27;100.00;101002.91;4962491;28;20074;-62
2022/11/24 10:27:47;;;;;;;12.25;2.85;;;;;;;10.35;100.00;100998.25;4968565;28;20062;-67
2022/11/24 10:30:17;;;;;;;17.35;2.78;;;;;;;10.40;100.00;101001.63;4969631;28;20034;-68
2022/11/24 10:32:55;;;;;;;18.27;2.85;;;;;;;10.43;100.00;100998.91;4968933;28;20027;-69
2022/11/24 10:35:34;;;;;;;19.17;3.40;;;;;;;10.42;100.00;100999.78;4967462;28;20109;-67
2022/11/24 10:38:21;;;;;;;17.52;3.42;;;;;;;10.46;100.00;100995.34;4967218;28;20540;-67
2022/11/24 10:40:56;;;;;;;25.33;3.38;;;;;;;10.42;100.00;100997.16;4967296;28;20023;-60
2022/11/24 10:43:21;;;;;;;18.05;3.35;;;;;;;10.47;100.00;100997.06;4966493;28;20030;-66
2022/11/24 10:45:47;;;;;;;17.92;2.75;;;;;;;10.58;100.00;101009.91;4967789;28;20381;-60
2022/11/24 10:48:24;;;;;;;19.92;4.15;;;;;;;10.47;100.00;101003.19;4969456;28;20197;-60
2022/11/24 10:50:53;;;;;;;23.45;3.90;;;;;;;10.48;100.00;101020.72;4967305;28;20054;-68
2022/11/24 10:53:22;;;;;;;26.30;3.77;;;;;;;10.53;100.00;101014.47;4967911;28;20062;-66
2022/11/24 10:55:54;;;;;;;22.27;3.38;;;;;;;10.65;100.00;101026.41;4967230;28;20286;-65
2022/11/24 10:58:30;;;;;;;23.27;4.18;;;;;;;10.71;100.00;101019.16;4968035;28;20535;-65
2022/11/24 11:00:59;;;;;;;26.70;4.45;;;;;;;10.76;100.00;101016.38;4967924;28;20102;-66
2022/11/24 11:03:27;;;;;;;15.32;3.67;;;;;;;10.74;100.00;101012.91;4968654;28;20061;-68
2022/11/24 11:05:53;;;;;;;26.92;4.13;;;;;;;10.80;100.00;101007.44;4981344;28;20046;-68
2022/11/24 11:08:23;;;;;;;24.55;4.25;;;;;;;10.76;100.00;101003.19;4988188;28;20616;-68
2022/11/24 11:11:09;;;;;;;21.00;3.70;;;;;;;10.80;100.00;101009.22;4985722;28;20042;-61
2022/11/24 11:13:34;;;;;;;22.23;3.95;;;;;;;10.87;100.00;101013.41;4988245;28;20030;-62
2022/11/24 11:15:59;;;;;;;21.25;4.05;;;;;;;10.96;100.00;101002.53;4988422;28;20109;-65
2022/11/24 11:18:29;;;;;;;14.52;2.95;;;;;;;11.04;100.00;101004.91;5002877;28;20030;-65
2022/11/24 11:20:56;;;;;;;27.05;3.60;;;;;;;11.00;100.00;101003.31;5005183;28;20368;-63
2022/11/24 11:23:30;;;;;;;22.10;3.15;;;;;;;11.09;100.00;101010.91;5006684;28;20421;-63